Decoded Metar for KGGI (GRINNELL REG in IA, USA) (IATA:GGI) | Meteo·Mobile Aviation Weather
aviador You're here:

KGGI Decoded Metar

GRINNELL REG in IA, USA
Report Time2019-03-19 18:55:00
UTC Time2019-03-19 19:09:28
Flight Rules vfr VFR
Wind190° at 08 kt
W.Decomp.*RWY 13: 4.2 kt HW 6.8 kt RCW
W.Rank190° ranks 8
Current wind is below 190° avg. (8.7)
Visibility9999 m
Phenomena:N/A
Clouds:N/A
Expected CloudBase > 4,000 ft AGL from Temp-Dew spread
CeilingNone
Temp09°C (ISA -4)
Dew Point-1°C (50% RH)
AAT4.0°C
QNH1026 hPa
Density Alt174 ft
Elevation1,007 ft
Report Wrong Elevation
Raw Report
KGGI 191855Z AUTO 19008KT 10SM CLR 09/M01 A3031 RMK AO2
T00921011=

Extra information for KGGI:More info

Metar Taf Metar & Taf Last 4 Metars F.Rules Stats Wind Profile Meteogram Temp Stats Airport Information Weather charts Add Link Nearby VenuesMetar ALERT Operation Metar Decoded Social comments

AIRNAV info for KGGI